TAS weather

Tashkent International Airport
Tashkent, Toshkent, Uzbekistan

Public forecast

Using degrees Celsius for public forecast. Weather courtesy of forecast.io.

METAR (pilot weather report)

Retrieved 2019/06/19 10:30 UTC (3 minutes ago):

UTTT 191030Z 23004KT 170V270 CAVOK 31/01 Q1007 R26L/CLRD70 NOSIG

TAF (pilot weather forecast)

Retrieved 2019/06/19 06:00 UTC (5 hours ago):

TAF UTTT 190500Z 1906/2006 27016KT 7000 NSC TEMPO 1906/1916 32010G20KT FEW060CB